Time;durP1;ratioP1;P1;durP2;ratioP2;P2;SDS_P1;SDS_P2;PMS_P1;PMS_P2;Temp;Humidity;BMP_temperature;BMP_pressure;BME280_temperature;BME280_humidity;BME280_pressure;Samples;Min_cycle;Max_cycle;Signal;HPM_P1;HPM_P2
2024/01/19 00:01:57;;;;;;;59.05;34.67;;;-1.10;99.90;;;;;;5007238;28;20439;-63
2024/01/19 00:04:23;;;;;;;59.95;34.70;;;-1.10;99.90;;;;;;5008039;28;20424;-62
2024/01/19 00:06:51;;;;;;;54.67;33.83;;;-1.10;99.90;;;;;;5005646;28;20463;-61
2024/01/19 00:09:18;;;;;;;54.50;34.67;;;-1.10;99.90;;;;;;5009542;28;20420;-61
2024/01/19 00:11:45;;;;;;;55.10;35.85;;;-1.10;99.90;;;;;;5007222;28;20413;-63
2024/01/19 00:14:12;;;;;;;56.70;35.60;;;-1.00;99.90;;;;;;5004467;28;21126;-63
2024/01/19 00:16:42;;;;;;;56.30;35.75;;;-1.00;99.90;;;;;;5000621;28;20420;-61
2024/01/19 00:19:09;;;;;;;56.00;34.22;;;-0.90;99.90;;;;;;5005039;28;20471;-61
2024/01/19 00:21:42;;;;;;;51.97;35.85;;;-0.90;99.90;;;;;;5002771;28;20436;-60
2024/01/19 00:24:11;;;;;;;54.85;35.83;;;-0.80;99.90;;;;;;5007223;28;20420;-61
2024/01/19 00:26:37;;;;;;;52.25;34.70;;;-0.80;99.90;;;;;;5007198;28;20427;-61
2024/01/19 00:29:04;;;;;;;51.65;35.33;;;-0.90;99.90;;;;;;5003432;28;20444;-63
2024/01/19 00:31:31;;;;;;;53.38;35.15;;;-0.80;99.90;;;;;;5003244;28;20844;-61
2024/01/19 00:33:58;;;;;;;54.85;36.05;;;-0.80;99.90;;;;;;5005617;28;20431;-62
2024/01/19 00:36:24;;;;;;;54.20;34.65;;;-0.80;99.90;;;;;;5007059;28;20416;-63
2024/01/19 00:38:52;;;;;;;51.88;33.13;;;-0.70;99.90;;;;;;5005558;28;20444;-61
2024/01/19 00:41:20;;;;;;;46.80;32.05;;;-0.80;99.90;;;;;;5008102;28;20453;-61
2024/01/19 00:43:47;;;;;;;46.88;32.00;;;-0.80;99.90;;;;;;5005954;28;20444;-63
2024/01/19 00:46:14;;;;;;;50.58;32.70;;;-0.90;99.90;;;;;;5005546;28;20423;-61
2024/01/19 00:48:40;;;;;;;54.15;35.05;;;-0.90;99.90;;;;;;5006345;28;20421;-60
2024/01/19 00:51:07;;;;;;;56.70;34.60;;;-0.80;99.90;;;;;;5007645;28;20417;-63
2024/01/19 00:53:34;;;;;;;55.80;34.85;;;-0.80;99.90;;;;;;5005917;28;20417;-63
2024/01/19 00:56:01;;;;;;;53.88;33.83;;;-0.80;99.90;;;;;;5039221;23;21170;-69
2024/01/19 00:58:29;;;;;;;51.80;31.55;;;-0.80;99.90;;;;;;5038347;28;20436;-69
2024/01/19 01:00:57;;;;;;;52.70;31.17;;;-0.80;99.90;;;;;;5054466;28;20479;-69
2024/01/19 01:03:24;;;;;;;46.78;30.73;;;-0.80;99.90;;;;;;5052817;28;20407;-69
2024/01/19 01:05:56;;;;;;;48.65;30.50;;;-0.80;99.90;;;;;;5055428;28;20435;-68
2024/01/19 01:08:22;;;;;;;41.17;27.92;;;-0.80;99.90;;;;;;5049254;28;20485;-70
2024/01/19 01:10:49;;;;;;;40.70;28.50;;;-0.70;99.90;;;;;;5055961;28;20420;-69
2024/01/19 01:13:17;;;;;;;42.13;28.35;;;-0.80;99.90;;;;;;5060496;28;20417;-68
2024/01/19 01:15:45;;;;;;;45.50;29.58;;;-0.90;99.90;;;;;;5048256;28;20417;-69
2024/01/19 01:18:11;;;;;;;45.30;29.30;;;-0.90;99.90;;;;;;5055493;28;20413;-69
2024/01/19 01:20:39;;;;;;;45.17;29.92;;;-0.90;99.90;;;;;;5052582;28;20434;-69
2024/01/19 01:23:05;;;;;;;46.65;29.85;;;-0.80;99.90;;;;;;5048082;28;20508;-70
2024/01/19 01:25:32;;;;;;;42.15;27.40;;;-0.80;99.90;;;;;;5062786;28;20440;-69
2024/01/19 01:27:58;;;;;;;43.65;28.48;;;-0.80;99.90;;;;;;5049583;28;20413;-69
2024/01/19 01:30:25;;;;;;;45.92;30.25;;;-0.80;99.90;;;;;;5052842;28;20421;-69
2024/01/19 01:32:53;;;;;;;46.47;31.02;;;-0.70;99.90;;;;;;5041592;28;20441;-69
2024/01/19 01:35:20;;;;;;;51.15;31.98;;;-0.70;99.90;;;;;;5056128;28;20416;-69
2024/01/19 01:37:47;;;;;;;50.38;31.17;;;-0.70;99.90;;;;;;5048709;28;20808;-69
2024/01/19 01:40:14;;;;;;;52.57;30.90;;;-0.70;99.90;;;;;;5041654;28;20433;-69
2024/01/19 01:42:40;;;;;;;54.47;32.35;;;-0.70;99.90;;;;;;5057175;28;20427;-70
2024/01/19 01:45:09;;;;;;;48.30;30.30;;;-0.70;99.90;;;;;;5046896;28;20914;-69
2024/01/19 01:47:36;;;;;;;46.88;30.35;;;-0.70;99.90;;;;;;5055816;28;20410;-69
2024/01/19 01:50:05;;;;;;;40.75;27.90;;;-0.70;99.90;;;;;;5054445;28;20404;-69
2024/01/19 01:52:32;;;;;;;40.80;27.40;;;-0.70;99.90;;;;;;5056492;28;20472;-69
2024/01/19 01:54:59;;;;;;;40.67;28.10;;;-0.70;99.90;;;;;;5047741;28;20433;-69
2024/01/19 01:57:26;;;;;;;41.05;28.48;;;-0.80;99.90;;;;;;5047014;28;20421;-69
2024/01/19 01:59:54;;;;;;;37.70;27.63;;;-0.80;99.90;;;;;;5044992;28;20441;-69
2024/01/19 02:02:21;;;;;;;40.25;27.20;;;-0.90;99.90;;;;;;5048644;28;20454;-69
2024/01/19 02:04:48;;;;;;;37.58;27.13;;;-0.90;99.90;;;;;;5051199;28;20420;-69
2024/01/19 02:07:16;;;;;;;40.55;27.67;;;-1.00;99.90;;;;;;5057623;28;20443;-69
2024/01/19 02:09:43;;;;;;;38.28;27.73;;;-1.00;99.90;;;;;;5048224;28;20406;-71
2024/01/19 02:12:10;;;;;;;39.00;27.90;;;-1.00;99.90;;;;;;5039229;28;21253;-69
2024/01/19 02:14:36;;;;;;;42.72;28.63;;;-1.00;99.90;;;;;;5038961;28;20441;-69
2024/01/19 02:17:03;;;;;;;43.27;29.37;;;-1.00;99.90;;;;;;5046996;28;20439;-69
2024/01/19 02:19:30;;;;;;;44.58;29.33;;;-1.00;99.90;;;;;;5058798;28;20930;-69
2024/01/19 02:21:57;;;;;;;45.75;30.02;;;-1.00;99.90;;;;;;5055701;28;20438;-69
2024/01/19 02:24:25;;;;;;;43.80;29.95;;;-1.00;99.90;;;;;;5056683;28;20411;-69
2024/01/19 02:26:52;;;;;;;45.53;30.30;;;-1.00;99.90;;;;;;5042721;28;20426;-69
2024/01/19 02:29:20;;;;;;;44.95;29.35;;;-1.00;99.90;;;;;;5053196;28;20934;-69
2024/01/19 02:31:47;;;;;;;41.28;28.60;;;-1.00;99.90;;;;;;5044390;28;20993;-69
2024/01/19 02:34:13;;;;;;;41.05;28.23;;;-1.10;99.90;;;;;;5056948;28;20521;-70
2024/01/19 02:36:40;;;;;;;40.50;27.67;;;-1.10;99.90;;;;;;5056280;28;20413;-70
2024/01/19 02:39:07;;;;;;;37.35;27.35;;;-1.20;99.90;;;;;;5058723;28;20417;-69
2024/01/19 02:41:35;;;;;;;35.65;26.08;;;-1.30;99.90;;;;;;5048707;28;20432;-69
2024/01/19 02:44:02;;;;;;;39.88;27.27;;;-1.40;99.90;;;;;;5054108;28;20820;-69
2024/01/19 02:46:28;;;;;;;40.70;28.40;;;-1.50;99.90;;;;;;5051717;28;20407;-69
2024/01/19 02:48:55;;;;;;;40.55;27.38;;;-1.60;99.90;;;;;;5051080;28;20420;-69
2024/01/19 02:51:22;;;;;;;41.42;28.65;;;-1.60;99.90;;;;;;5052157;28;20409;-70
2024/01/19 02:53:48;;;;;;;42.05;29.52;;;-1.60;99.90;;;;;;5048822;28;20413;-70
2024/01/19 02:56:15;;;;;;;39.08;27.23;;;-1.60;99.90;;;;;;5059307;28;20424;-70
2024/01/19 02:58:43;;;;;;;38.58;28.08;;;-1.50;99.90;;;;;;5042375;28;20431;-71
2024/01/19 03:01:10;;;;;;;40.42;27.23;;;-1.40;99.90;;;;;;5053826;28;20443;-69
2024/01/19 03:03:37;;;;;;;39.22;27.80;;;-1.40;99.90;;;;;;5057578;28;20415;-68
2024/01/19 03:06:04;;;;;;;37.38;26.52;;;-1.40;99.90;;;;;;5062696;28;20778;-69
2024/01/19 03:08:31;;;;;;;32.97;25.17;;;-1.30;99.90;;;;;;5041347;28;20427;-67
2024/01/19 03:10:58;;;;;;;34.10;24.52;;;-1.30;99.90;;;;;;5049421;28;20413;-69
2024/01/19 03:13:24;;;;;;;33.17;24.60;;;-1.30;99.90;;;;;;5056509;28;20462;-69
2024/01/19 03:15:52;;;;;;;33.17;24.55;;;-1.30;99.90;;;;;;5044699;28;20448;-68
2024/01/19 03:18:19;;;;;;;32.90;24.40;;;-1.40;99.90;;;;;;5053245;28;20445;-69
2024/01/19 03:20:46;;;;;;;31.92;23.27;;;-1.30;99.90;;;;;;5051344;28;20432;-69
2024/01/19 03:23:13;;;;;;;30.13;23.10;;;-1.30;99.90;;;;;;5040203;28;20421;-69
2024/01/19 03:25:39;;;;;;;31.57;22.63;;;-1.30;99.90;;;;;;5041755;28;20408;-68
2024/01/19 03:28:06;;;;;;;29.75;22.95;;;-1.30;99.90;;;;;;5044447;28;20424;-70
2024/01/19 03:30:33;;;;;;;31.10;23.15;;;-1.30;99.90;;;;;;5040307;28;20436;-69
2024/01/19 03:33:01;;;;;;;31.67;24.23;;;-1.30;99.90;;;;;;5054264;28;20417;-69
2024/01/19 03:35:28;;;;;;;30.90;22.45;;;-1.30;99.90;;;;;;5050831;28;20892;-69
2024/01/19 03:37:55;;;;;;;29.00;22.63;;;-1.30;99.90;;;;;;5050482;28;20421;-70
2024/01/19 03:40:21;;;;;;;29.40;22.70;;;-1.30;99.90;;;;;;5056483;28;20428;-70
2024/01/19 03:42:48;;;;;;;30.67;22.60;;;-1.30;99.90;;;;;;5059042;28;20521;-72
2024/01/19 03:45:15;;;;;;;29.95;22.60;;;-1.30;99.90;;;;;;5055858;28;20965;-69
2024/01/19 03:47:42;;;;;;;28.17;21.97;;;-1.30;99.90;;;;;;5051552;28;20418;-70
2024/01/19 03:50:10;;;;;;;28.42;21.65;;;-1.30;99.90;;;;;;5045028;28;20439;-71
2024/01/19 03:52:38;;;;;;;28.10;22.00;;;-1.20;99.90;;;;;;5053778;28;20429;-70
2024/01/19 03:55:05;;;;;;;29.63;22.50;;;-1.30;99.90;;;;;;5033234;28;20417;-70
2024/01/19 03:57:32;;;;;;;30.20;21.87;;;-1.30;99.90;;;;;;5055827;28;20414;-69
2024/01/19 03:59:58;;;;;;;27.38;21.55;;;-1.30;99.90;;;;;;5049373;28;20425;-70
2024/01/19 04:02:25;;;;;;;29.95;22.70;;;-1.20;99.90;;;;;;5045562;28;20418;-69
2024/01/19 04:04:52;;;;;;;29.65;22.40;;;-1.20;99.90;;;;;;5051736;28;20417;-69
2024/01/19 04:07:20;;;;;;;28.23;21.48;;;-1.30;99.90;;;;;;5060273;28;20411;-70
2024/01/19 04:09:47;;;;;;;29.25;22.90;;;-1.20;99.90;;;;;;5044813;28;20820;-69
2024/01/19 04:12:15;;;;;;;29.40;22.30;;;-1.20;99.90;;;;;;5047974;28;20423;-68
2024/01/19 04:14:42;;;;;;;30.17;22.50;;;-1.20;99.90;;;;;;5045758;28;20436;-68
2024/01/19 04:17:09;;;;;;;29.40;22.60;;;-1.20;99.90;;;;;;5061204;28;20465;-69
2024/01/19 04:19:37;;;;;;;28.95;21.73;;;-1.20;99.90;;;;;;5050426;28;20876;-68
2024/01/19 04:22:04;;;;;;;28.13;22.58;;;-1.20;99.90;;;;;;5053882;28;20459;-69
2024/01/19 04:24:33;;;;;;;27.95;21.08;;;-1.20;99.90;;;;;;5046043;28;20405;-70
2024/01/19 04:26:59;;;;;;;28.95;22.05;;;-1.20;99.90;;;;;;5044657;28;20434;-68
2024/01/19 04:29:26;;;;;;;25.25;19.63;;;-1.20;99.90;;;;;;5043918;28;20433;-70
2024/01/19 04:31:53;;;;;;;24.83;19.50;;;-1.20;99.90;;;;;;5046895;28;20416;-70
2024/01/19 04:34:20;;;;;;;23.75;19.00;;;-1.20;99.90;;;;;;5052170;28;20421;-70
2024/01/19 04:36:48;;;;;;;24.13;18.80;;;-1.20;99.90;;;;;;5056597;28;20435;-70
2024/01/19 04:39:16;;;;;;;24.27;19.48;;;-1.20;99.90;;;;;;5053733;28;20935;-70
2024/01/19 04:41:44;;;;;;;23.48;17.80;;;-1.20;99.90;;;;;;5061501;28;20427;-70
2024/01/19 04:44:11;;;;;;;21.77;17.60;;;-1.20;99.90;;;;;;5049101;28;20436;-69
2024/01/19 04:46:37;;;;;;;20.67;16.98;;;-1.20;99.90;;;;;;5051175;28;20433;-69
2024/01/19 04:49:04;;;;;;;23.05;17.63;;;-1.20;99.90;;;;;;5053915;28;20429;-69
2024/01/19 04:51:31;;;;;;;23.00;18.60;;;-1.10;99.90;;;;;;5044829;28;20542;-68
2024/01/19 04:53:59;;;;;;;23.65;19.10;;;-1.10;99.90;;;;;;5049424;28;20424;-69
2024/01/19 04:56:26;;;;;;;21.00;16.90;;;-1.10;99.90;;;;;;5041834;28;20556;-70
2024/01/19 04:58:54;;;;;;;20.92;17.02;;;-1.00;99.90;;;;;;5045958;28;20816;-70
2024/01/19 05:01:20;;;;;;;23.75;18.42;;;-1.00;99.90;;;;;;5045925;28;20432;-71
2024/01/19 05:03:47;;;;;;;24.65;18.60;;;-1.00;99.90;;;;;;5053677;28;20462;-69
2024/01/19 05:06:14;;;;;;;23.70;17.60;;;-1.00;99.90;;;;;;5044133;28;20917;-70
2024/01/19 05:08:41;;;;;;;22.65;17.77;;;-0.90;99.90;;;;;;5047879;28;20429;-69
2024/01/19 05:11:11;;;;;;;20.30;15.88;;;-0.90;99.90;;;;;;5046961;28;20923;-69
2024/01/19 05:13:38;;;;;;;21.60;16.77;;;-0.90;99.90;;;;;;5039379;28;20521;-70
2024/01/19 05:16:06;;;;;;;21.00;16.45;;;-0.90;99.90;;;;;;5048427;28;20445;-68
2024/01/19 05:18:33;;;;;;;19.30;15.80;;;-0.90;99.90;;;;;;5049428;28;20427;-70
2024/01/19 05:21:00;;;;;;;17.30;14.48;;;-0.90;99.90;;;;;;5035320;28;20456;-70
2024/01/19 05:23:27;;;;;;;17.87;15.00;;;-0.90;99.90;;;;;;5053338;28;21416;-70
2024/01/19 05:25:53;;;;;;;17.70;14.77;;;-0.90;99.90;;;;;;5048591;28;20433;-69
2024/01/19 05:28:21;;;;;;;18.80;15.30;;;-1.00;99.90;;;;;;5056997;28;20410;-69
2024/01/19 05:30:48;;;;;;;19.88;15.15;;;-1.00;99.90;;;;;;5043222;28;20512;-69
2024/01/19 05:33:16;;;;;;;19.15;14.38;;;-0.90;99.90;;;;;;5051559;28;20425;-69
2024/01/19 05:35:43;;;;;;;17.95;14.90;;;-0.90;99.90;;;;;;5054171;28;20409;-70
2024/01/19 05:38:10;;;;;;;18.77;14.75;;;-1.00;99.90;;;;;;5046969;28;20433;-70
2024/01/19 05:40:36;;;;;;;18.05;14.52;;;-0.90;99.90;;;;;;5040643;28;21078;-71
2024/01/19 05:43:04;;;;;;;17.60;14.48;;;-0.90;99.90;;;;;;5055141;28;20428;-70
2024/01/19 05:45:30;;;;;;;19.05;14.50;;;-0.90;99.90;;;;;;5046645;28;20431;-70
2024/01/19 05:47:57;;;;;;;18.27;14.30;;;-0.90;99.90;;;;;;5040889;28;21417;-71
2024/01/19 05:50:25;;;;;;;17.88;14.63;;;-0.90;99.90;;;;;;5039916;28;20452;-72
2024/01/19 05:52:52;;;;;;;17.23;14.00;;;-0.90;99.90;;;;;;5046125;28;20923;-71
2024/01/19 05:55:18;;;;;;;19.73;14.00;;;-0.90;99.90;;;;;;5052745;28;20532;-73
2024/01/19 05:57:45;;;;;;;18.02;13.68;;;-0.90;99.90;;;;;;5050673;28;20420;-72
2024/01/19 06:00:13;;;;;;;17.30;14.52;;;-0.90;99.90;;;;;;5049978;28;20970;-71
2024/01/19 06:02:40;;;;;;;17.65;14.20;;;-0.90;99.90;;;;;;5041147;28;20923;-70
2024/01/19 06:05:07;;;;;;;16.65;13.32;;;-0.90;99.90;;;;;;5047333;28;20425;-72
2024/01/19 06:07:35;;;;;;;15.63;13.07;;;-0.90;99.90;;;;;;5047791;28;20412;-72
2024/01/19 06:10:02;;;;;;;19.33;13.88;;;-0.90;99.90;;;;;;5041910;28;20429;-72
2024/01/19 06:12:29;;;;;;;17.80;13.70;;;-0.90;99.90;;;;;;5057962;28;20408;-72
2024/01/19 06:14:56;;;;;;;16.88;13.35;;;-1.00;99.90;;;;;;5046903;28;20936;-72
2024/01/19 06:17:22;;;;;;;17.13;12.98;;;-1.00;99.90;;;;;;5055593;28;20440;-72
2024/01/19 06:19:49;;;;;;;15.53;11.97;;;-1.00;99.90;;;;;;5041178;28;20492;-71
2024/01/19 06:22:16;;;;;;;16.00;12.80;;;-1.00;99.90;;;;;;5038923;28;20429;-71
2024/01/19 06:24:44;;;;;;;15.38;13.43;;;-1.00;99.90;;;;;;5040036;28;20788;-71
2024/01/19 06:27:13;;;;;;;17.48;14.20;;;-1.00;99.90;;;;;;5037621;28;20448;-71
2024/01/19 06:29:40;;;;;;;17.25;12.85;;;-1.00;99.90;;;;;;5039480;28;20448;-71
2024/01/19 06:32:07;;;;;;;15.80;12.88;;;-1.00;99.90;;;;;;5053382;28;20424;-70
2024/01/19 06:34:37;;;;;;;16.42;13.07;;;-1.00;99.90;;;;;;5037389;28;20465;-70
2024/01/19 06:37:04;;;;;;;16.83;14.05;;;-0.90;99.90;;;;;;5043969;28;21121;-70
2024/01/19 06:39:30;;;;;;;17.13;13.55;;;-0.90;99.90;;;;;;5045389;28;20448;-69
2024/01/19 06:41:58;;;;;;;17.77;14.02;;;-0.90;99.90;;;;;;5044668;28;20433;-69
2024/01/19 06:44:25;;;;;;;18.73;13.80;;;-0.90;99.90;;;;;;5046942;28;20416;-70
2024/01/19 06:46:52;;;;;;;16.75;13.02;;;-0.90;99.90;;;;;;5042375;28;20413;-70
2024/01/19 06:49:18;;;;;;;18.23;14.25;;;-0.90;99.90;;;;;;5040826;28;20410;-70
2024/01/19 06:51:45;;;;;;;17.90;13.48;;;-0.90;99.90;;;;;;5045404;28;20454;-70
2024/01/19 06:54:12;;;;;;;16.05;13.40;;;-0.90;99.90;;;;;;5055810;28;20419;-71
2024/01/19 06:56:39;;;;;;;19.02;13.23;;;-0.80;99.90;;;;;;5052644;28;20451;-70
2024/01/19 06:59:07;;;;;;;17.88;12.43;;;-0.90;99.90;;;;;;5053025;28;20582;-71
2024/01/19 07:01:34;;;;;;;20.30;13.43;;;-0.90;99.90;;;;;;5056029;28;20506;-71
2024/01/19 07:04:02;;;;;;;18.35;13.20;;;-1.00;99.90;;;;;;5047730;28;20441;-70
2024/01/19 07:06:28;;;;;;;17.42;13.60;;;-1.10;99.90;;;;;;5057882;28;20437;-71
2024/01/19 07:08:55;;;;;;;17.77;13.43;;;-1.20;99.90;;;;;;5056174;28;20413;-70
2024/01/19 07:11:22;;;;;;;18.23;13.15;;;-1.40;99.90;;;;;;5052207;28;20429;-70
2024/01/19 07:13:48;;;;;;;19.05;14.18;;;-1.40;99.90;;;;;;5040774;28;20809;-71
2024/01/19 07:16:17;;;;;;;21.88;14.20;;;-1.50;99.90;;;;;;5051320;28;20427;-71
2024/01/19 07:18:44;;;;;;;21.00;15.05;;;-1.50;99.90;;;;;;5059230;28;20549;-70
2024/01/19 07:21:11;;;;;;;20.13;14.68;;;-1.60;99.90;;;;;;5061480;28;20791;-70
2024/01/19 07:23:38;;;;;;;20.90;14.82;;;-1.60;99.90;;;;;;5054106;28;20508;-72
2024/01/19 07:26:05;;;;;;;18.05;14.20;;;-1.70;99.90;;;;;;5048712;28;20479;-72
2024/01/19 07:28:32;;;;;;;20.67;14.70;;;-1.70;99.90;;;;;;5052394;28;20673;-71
2024/01/19 07:30:59;;;;;;;22.58;14.70;;;-1.70;99.90;;;;;;5047192;28;20507;-71
2024/01/19 07:33:28;;;;;;;21.42;14.30;;;-1.80;99.90;;;;;;5052944;28;20971;-72
2024/01/19 07:35:55;;;;;;;20.08;15.05;;;-1.80;99.90;;;;;;5040015;28;20421;-71
2024/01/19 07:38:22;;;;;;;22.00;15.40;;;-1.80;99.90;;;;;;5056865;28;20913;-71
2024/01/19 07:40:48;;;;;;;23.42;15.80;;;-1.80;99.90;;;;;;5050888;28;20427;-71
2024/01/19 07:43:15;;;;;;;20.98;14.55;;;-1.80;99.90;;;;;;5053235;28;20429;-71
2024/01/19 07:45:42;;;;;;;21.50;15.70;;;-1.70;99.90;;;;;;5041000;28;20465;-71
2024/01/19 07:48:08;;;;;;;18.50;14.40;;;-1.70;99.90;;;;;;5044605;28;21040;-71
2024/01/19 07:50:37;;;;;;;20.13;15.43;;;-1.70;99.90;;;;;;5036041;28;20419;-71
2024/01/19 07:53:04;;;;;;;20.73;14.60;;;-1.70;99.90;;;;;;5038231;28;20417;-71
2024/01/19 07:55:30;;;;;;;22.13;15.82;;;-1.70;99.90;;;;;;5042948;28;20421;-72
2024/01/19 07:57:57;;;;;;;21.23;15.38;;;-1.70;99.90;;;;;;5047947;28;20443;-71
2024/01/19 08:00:25;;;;;;;20.65;15.40;;;-1.70;99.90;;;;;;5052501;28;20425;-71
2024/01/19 08:02:52;;;;;;;22.05;16.35;;;-1.70;99.90;;;;;;5042383;28;20534;-71
2024/01/19 08:05:19;;;;;;;20.92;15.52;;;-1.70;99.90;;;;;;5054067;28;20896;-71
2024/01/19 08:07:47;;;;;;;22.43;15.80;;;-1.70;99.90;;;;;;5046176;28;20461;-72
2024/01/19 08:10:14;;;;;;;22.33;15.60;;;-1.70;99.90;;;;;;5044386;28;20471;-71
2024/01/19 08:12:41;;;;;;;21.95;16.80;;;-1.70;99.90;;;;;;5040697;28;20426;-71
2024/01/19 08:15:09;;;;;;;21.20;14.63;;;-1.70;99.90;;;;;;5050340;28;20492;-71
2024/01/19 08:17:36;;;;;;;21.35;14.73;;;-1.70;99.90;;;;;;5047119;28;20509;-71
2024/01/19 08:20:03;;;;;;;21.98;14.80;;;-1.70;99.90;;;;;;5051518;28;20407;-71
2024/01/19 08:22:29;;;;;;;20.00;15.02;;;-1.60;99.90;;;;;;5037769;28;20433;-72
2024/01/19 08:24:58;;;;;;;20.73;15.07;;;-1.60;99.90;;;;;;5047673;28;20422;-71
2024/01/19 08:27:26;;;;;;;20.50;15.35;;;-1.50;99.90;;;;;;5053819;28;20449;-71
2024/01/19 08:29:53;;;;;;;19.25;15.15;;;-1.50;99.90;;;;;;5051472;28;20498;-72
2024/01/19 08:32:19;;;;;;;22.33;14.68;;;-1.40;99.90;;;;;;5043756;28;20425;-72
2024/01/19 08:34:46;;;;;;;21.70;15.43;;;-1.40;99.90;;;;;;5057465;28;20928;-70
2024/01/19 08:37:13;;;;;;;20.77;16.63;;;-1.40;99.90;;;;;;5048513;28;20417;-71
2024/01/19 08:39:40;;;;;;;21.50;15.40;;;-1.30;99.90;;;;;;5045642;28;20427;-70
2024/01/19 08:42:08;;;;;;;21.52;15.23;;;-1.20;99.90;;;;;;5052986;28;20433;-71
2024/01/19 08:44:35;;;;;;;22.95;16.42;;;-1.10;99.90;;;;;;5048478;28;20423;-72
2024/01/19 08:47:02;;;;;;;18.98;14.40;;;-0.80;99.90;;;;;;5058603;28;20440;-70
2024/01/19 08:49:29;;;;;;;20.90;15.27;;;-0.40;99.90;;;;;;5051420;28;20421;-72
2024/01/19 08:51:56;;;;;;;21.93;14.50;;;0.00;99.90;;;;;;5051557;28;20927;-71
2024/01/19 08:54:23;;;;;;;17.33;13.27;;;0.20;99.90;;;;;;5052153;28;20452;-71
2024/01/19 08:56:49;;;;;;;16.48;13.68;;;0.40;99.90;;;;;;5064608;22;20457;-63
2024/01/19 08:59:18;;;;;;;18.20;14.60;;;0.40;99.90;;;;;;5041578;28;20907;-62
2024/01/19 09:01:46;;;;;;;21.25;14.68;;;0.30;99.90;;;;;;5043558;28;20582;-62
2024/01/19 09:04:13;;;;;;;18.20;13.93;;;0.20;99.90;;;;;;5044745;28;20420;-63
2024/01/19 09:06:40;;;;;;;20.25;14.82;;;0.10;99.90;;;;;;5044310;28;20685;-63
2024/01/19 09:09:08;;;;;;;19.95;15.10;;;0.00;99.90;;;;;;5042822;28;20482;-70
2024/01/19 09:11:35;;;;;;;19.88;15.50;;;0.00;99.90;;;;;;5043562;28;20494;-63
2024/01/19 09:14:02;;;;;;;18.63;14.93;;;0.00;99.90;;;;;;5040910;28;20417;-63
2024/01/19 09:16:30;;;;;;;21.90;16.10;;;0.10;99.90;;;;;;5041789;28;20440;-63
2024/01/19 09:18:57;;;;;;;22.15;15.73;;;0.20;99.90;;;;;;5046685;28;20413;-64
2024/01/19 09:21:24;;;;;;;19.80;15.00;;;0.30;99.90;;;;;;5043553;28;20893;-62
2024/01/19 09:23:50;;;;;;;19.63;15.68;;;0.30;99.90;;;;;;5044713;28;20426;-62
2024/01/19 09:26:18;;;;;;;19.05;15.18;;;0.40;99.90;;;;;;5045089;28;20440;-62
2024/01/19 09:28:45;;;;;;;19.40;15.77;;;0.50;99.90;;;;;;5044064;28;20421;-63
2024/01/19 09:31:12;;;;;;;18.05;13.77;;;0.60;99.90;;;;;;5039183;28;20453;-64
2024/01/19 09:33:40;;;;;;;17.63;13.93;;;0.80;99.90;;;;;;5044859;28;20409;-62
2024/01/19 09:36:07;;;;;;;17.10;14.70;;;0.90;99.90;;;;;;5045248;28;20543;-62
2024/01/19 09:38:35;;;;;;;17.75;14.00;;;0.90;99.90;;;;;;5042179;28;20530;-63
2024/01/19 09:41:11;;;;;;;18.05;14.63;;;1.00;99.90;;;;;;5043084;28;20441;-63
2024/01/19 09:43:42;;;;;;;19.58;14.75;;;1.00;99.90;;;;;;5046576;28;20557;-63
2024/01/19 09:46:17;;;;;;;20.52;15.38;;;1.20;99.90;;;;;;5050573;28;20439;-63
2024/01/19 09:48:56;;;;;;;17.75;14.25;;;1.30;99.90;;;;;;5045777;28;20432;-64
2024/01/19 09:51:28;;;;;;;16.00;14.30;;;1.40;99.90;;;;;;5048728;28;20416;-64
2024/01/19 09:54:00;;;;;;;19.10;14.52;;;1.40;99.90;;;;;;5041428;28;20441;-63
2024/01/19 09:56:26;;;;;;;19.20;15.70;;;1.40;99.90;;;;;;5045749;28;20437;-63
2024/01/19 09:58:56;;;;;;;17.73;15.07;;;1.30;99.90;;;;;;5049610;28;20417;-63
2024/01/19 10:01:22;;;;;;;22.35;16.20;;;1.30;99.90;;;;;;5043155;28;20436;-63
2024/01/19 10:03:57;;;;;;;19.30;15.98;;;1.20;99.90;;;;;;5044878;28;21173;-64
2024/01/19 10:06:24;;;;;;;18.92;15.43;;;1.10;99.90;;;;;;5044225;28;20418;-63
2024/01/19 10:08:55;;;;;;;21.55;16.45;;;1.00;99.90;;;;;;5044913;28;20910;-63
2024/01/19 10:11:23;;;;;;;21.63;16.70;;;1.00;99.90;;;;;;5041993;28;20421;-63
2024/01/19 10:13:50;;;;;;;20.38;16.88;;;0.90;99.90;;;;;;5044080;28;20432;-63
2024/01/19 10:16:16;;;;;;;22.05;17.67;;;0.90;99.90;;;;;;5040815;28;20895;-64
2024/01/19 10:18:44;;;;;;;21.20;18.20;;;1.00;99.90;;;;;;5045620;28;20413;-63
2024/01/19 10:21:14;;;;;;;24.30;17.67;;;1.10;99.90;;;;;;5044477;28;20455;-64
2024/01/19 10:23:41;;;;;;;21.92;16.15;;;1.10;99.90;;;;;;5042368;28;20433;-63
2024/01/19 10:26:15;;;;;;;24.80;19.95;;;1.20;99.90;;;;;;5045686;28;20511;-63
2024/01/19 10:28:42;;;;;;;29.92;23.65;;;1.30;99.90;;;;;;5030039;28;20413;-63
2024/01/19 10:31:17;;;;;;;19.53;16.60;;;1.30;99.90;;;;;;5043903;28;20437;-63
2024/01/19 10:33:51;;;;;;;23.67;18.30;;;1.30;99.90;;;;;;5039088;28;20425;-63
2024/01/19 10:36:19;;;;;;;23.08;17.77;;;1.40;99.90;;;;;;5044024;28;20421;-63
2024/01/19 10:38:46;;;;;;;19.98;17.05;;;1.50;99.90;;;;;;5044785;28;20493;-63
2024/01/19 10:41:16;;;;;;;20.55;16.67;;;1.50;99.90;;;;;;5043973;28;20597;-63
2024/01/19 10:43:43;;;;;;;19.63;15.48;;;1.60;99.90;;;;;;5041085;28;20448;-63
2024/01/19 10:46:20;;;;;;;21.05;17.02;;;1.60;99.90;;;;;;5043566;28;20442;-64
2024/01/19 10:48:49;;;;;;;21.45;17.15;;;1.60;99.90;;;;;;5043124;28;20487;-64
2024/01/19 10:51:19;;;;;;;19.97;16.13;;;1.60;99.90;;;;;;5044982;28;20439;-64
2024/01/19 10:53:47;;;;;;;20.70;16.42;;;1.60;99.90;;;;;;5045033;28;20413;-63
2024/01/19 10:56:22;;;;;;;21.33;16.15;;;1.60;99.90;;;;;;5043558;28;20418;-63
2024/01/19 10:58:49;;;;;;;22.43;17.57;;;1.60;99.90;;;;;;5037912;28;20741;-63
2024/01/19 11:01:17;;;;;;;22.92;17.15;;;1.70;99.90;;;;;;5041455;28;20834;-64
2024/01/19 11:03:45;;;;;;;22.95;17.27;;;1.80;99.90;;;;;;5045298;28;20892;-63
2024/01/19 11:06:12;;;;;;;21.13;17.10;;;1.80;99.90;;;;;;5044151;28;20881;-63
2024/01/19 11:08:40;;;;;;;20.92;16.92;;;1.90;99.90;;;;;;5043803;28;20429;-63
2024/01/19 11:11:09;;;;;;;20.55;16.00;;;1.90;99.90;;;;;;5045239;28;20413;-64
2024/01/19 11:13:38;;;;;;;23.83;17.33;;;2.00;99.90;;;;;;5044970;28;20414;-64
2024/01/19 11:16:11;;;;;;;20.88;17.52;;;2.00;99.90;;;;;;5039928;28;20495;-63
2024/01/19 11:18:38;;;;;;;18.67;16.43;;;1.90;99.90;;;;;;5044380;28;20788;-63
2024/01/19 11:21:05;;;;;;;18.63;16.58;;;2.00;99.90;;;;;;5045773;28;20869;-64
2024/01/19 11:23:33;;;;;;;18.75;15.38;;;1.90;99.90;;;;;;5045225;28;20425;-63
2024/01/19 11:26:10;;;;;;;23.00;16.50;;;1.90;99.90;;;;;;5041148;28;20909;-63
2024/01/19 11:28:50;;;;;;;24.65;17.45;;;1.80;99.90;;;;;;5041878;28;20772;-63
2024/01/19 11:31:19;;;;;;;19.30;16.75;;;1.80;99.90;;;;;;5040210;28;20429;-64
2024/01/19 11:33:46;;;;;;;21.25;17.35;;;1.90;99.90;;;;;;5044543;28;20410;-63
2024/01/19 11:36:48;;;;;;;22.52;15.90;;;1.90;99.90;;;;;;5041710;28;20437;-63
2024/01/19 11:39:41;;;;;;;16.63;14.37;;;1.90;99.90;;;;;;5044002;28;20420;-63
2024/01/19 11:42:09;;;;;;;19.60;15.90;;;2.00;99.90;;;;;;5044329;28;20524;-63
2024/01/19 11:44:47;;;;;;;20.05;16.45;;;2.00;99.90;;;;;;5044620;28;20957;-64
2024/01/19 11:47:40;;;;;;;20.05;16.30;;;2.00;99.90;;;;;;5042953;28;20437;-63
2024/01/19 11:50:09;;;;;;;17.77;15.40;;;2.00;99.90;;;;;;5043452;28;20512;-64
2024/01/19 11:52:55;;;;;;;18.55;15.23;;;1.90;99.90;;;;;;5047990;28;20409;-63
2024/01/19 11:55:42;;;;;;;20.20;16.58;;;1.90;99.90;;;;;;5045703;28;20429;-63
2024/01/19 11:58:28;;;;;;;19.83;15.43;;;1.90;99.90;;;;;;5046477;28;20433;-63
2024/01/19 12:00:55;;;;;;;18.48;14.82;;;2.00;99.90;;;;;;5044654;28;20693;-65
2024/01/19 12:03:22;;;;;;;20.30;15.13;;;2.10;99.90;;;;;;5044983;28;20958;-64
2024/01/19 12:05:50;;;;;;;18.08;15.90;;;2.30;99.90;;;;;;5047101;28;20417;-63
2024/01/19 12:08:17;;;;;;;19.10;14.40;;;2.50;99.90;;;;;;5047780;28;20436;-64
2024/01/19 12:10:44;;;;;;;18.38;14.60;;;2.80;99.90;;;;;;5046648;28;20963;-63
2024/01/19 12:13:12;;;;;;;19.92;15.27;;;3.20;99.90;;;;;;5047966;28;20472;-64
2024/01/19 12:15:41;;;;;;;17.95;14.70;;;3.60;99.90;;;;;;5046477;28;20487;-64
2024/01/19 12:18:08;;;;;;;19.00;14.60;;;4.10;99.90;;;;;;5047699;28;20428;-64
2024/01/19 12:20:34;;;;;;;17.40;14.40;;;5.00;99.90;;;;;;5044139;28;20447;-63
2024/01/19 12:23:01;;;;;;;16.80;14.43;;;6.10;99.90;;;;;;5047779;28;20436;-63
2024/01/19 12:25:28;;;;;;;16.15;14.00;;;7.00;99.90;;;;;;5045085;28;21076;-63
2024/01/19 12:28:04;;;;;;;16.33;13.68;;;7.50;98.90;;;;;;5041449;28;20896;-63
2024/01/19 12:30:33;;;;;;;17.40;14.43;;;7.60;93.10;;;;;;5043148;28;20513;-64
2024/01/19 12:33:14;;;;;;;19.70;15.75;;;7.50;96.90;;;;;;5045502;28;20462;-64
2024/01/19 12:35:41;;;;;;;17.80;15.90;;;7.30;94.30;;;;;;5043272;28;20425;-64